createdAt,value
2022-08-24T00:02:01.944Z,143.85
2022-08-24T00:04:32.006Z,141.82
2022-08-24T00:06:58.717Z,141.18
2022-08-24T00:09:25.169Z,139.45
2022-08-24T00:11:51.588Z,137.73
2022-08-24T00:14:17.938Z,134.40
2022-08-24T00:16:44.415Z,131.48
2022-08-24T00:19:10.886Z,125.88
2022-08-24T00:21:37.349Z,128.70
2022-08-24T00:24:03.816Z,126.22
2022-08-24T00:26:30.211Z,122.80
2022-08-24T00:28:56.525Z,122.40
2022-08-24T00:31:22.963Z,121.50
2022-08-24T00:33:49.553Z,119.32
2022-08-24T00:36:16.951Z,115.85
2022-08-24T00:38:43.456Z,114.68
2022-08-24T00:41:09.912Z,116.55
2022-08-24T00:43:37.395Z,117.43
2022-08-24T00:46:03.786Z,114.68
2022-08-24T00:48:30.223Z,111.07
2022-08-24T00:50:56.559Z,114.07
2022-08-24T00:53:22.894Z,109.15
2022-08-24T00:55:49.254Z,106.30
2022-08-24T00:58:15.784Z,110.28
2022-08-24T01:00:48.460Z,107.47
2022-08-24T01:03:16.543Z,104.07
2022-08-24T01:05:42.944Z,104.25
2022-08-24T01:08:09.388Z,101.93
2022-08-24T01:10:35.813Z,100.40
2022-08-24T01:13:02.225Z,101.32
2022-08-24T01:15:29.298Z,95.25
2022-08-24T01:17:55.653Z,97.25
2022-08-24T01:20:22.209Z,96.10
2022-08-24T01:22:48.651Z,97.57
2022-08-24T01:25:15.106Z,95.60
2022-08-24T01:27:41.789Z,93.40
2022-08-24T01:30:08.642Z,95.00
2022-08-24T01:32:36.487Z,93.85
2022-08-24T01:35:02.819Z,92.43
2022-08-24T01:37:29.140Z,86.53
2022-08-24T01:39:55.740Z,88.80
2022-08-24T01:42:22.924Z,87.35
2022-08-24T01:44:49.220Z,84.80
2022-08-24T01:47:15.560Z,87.00
2022-08-24T01:49:41.966Z,86.97
2022-08-24T01:52:08.341Z,85.13
2022-08-24T01:54:34.631Z,79.53
2022-08-24T01:57:01.075Z,78.53
2022-08-24T01:59:27.482Z,82.45
2022-08-24T02:01:53.942Z,78.10
2022-08-24T02:04:20.938Z,80.93
2022-08-24T02:06:47.386Z,79.45
2022-08-24T02:09:15.088Z,79.47
2022-08-24T02:11:41.551Z,76.53
2022-08-24T02:14:07.891Z,77.35
2022-08-24T02:16:34.520Z,74.97
2022-08-24T02:19:01.156Z,74.75
2022-08-24T02:21:27.784Z,75.60
2022-08-24T02:23:54.240Z,73.50
2022-08-24T02:26:20.554Z,75.40
2022-08-24T02:28:47.293Z,73.85
2022-08-24T02:31:13.721Z,72.00
2022-08-24T02:33:40.062Z,73.68
2022-08-24T02:36:25.216Z,72.18
2022-08-24T02:38:52.716Z,70.05
2022-08-24T02:41:20.672Z,68.22
2022-08-24T02:43:47.024Z,70.03
2022-08-24T02:46:13.877Z,71.68
2022-08-24T02:48:40.606Z,67.50
2022-08-24T02:51:07.061Z,68.03
2022-08-24T02:53:33.452Z,68.22
2022-08-24T02:55:59.930Z,65.82
2022-08-24T02:58:26.417Z,68.93
2022-08-24T03:00:52.734Z,65.55
2022-08-24T03:03:19.133Z,61.80
2022-08-24T03:05:45.761Z,66.53
2022-08-24T03:08:12.244Z,63.65
2022-08-24T03:10:38.700Z,63.95
2022-08-24T03:13:05.376Z,62.08
2022-08-24T03:15:32.119Z,63.90
2022-08-24T03:18:00.137Z,61.50
2022-08-24T03:20:26.575Z,61.72
2022-08-24T03:22:52.922Z,60.03
2022-08-24T03:25:19.232Z,62.47
2022-08-24T03:27:45.855Z,58.95
2022-08-24T03:30:12.140Z,61.50
2022-08-24T03:32:38.835Z,58.63
2022-08-24T03:35:05.151Z,60.60
2022-08-24T03:37:31.496Z,58.10
2022-08-24T03:39:57.957Z,58.78
2022-08-24T03:42:24.425Z,59.47
2022-08-24T03:44:50.757Z,55.67
2022-08-24T03:47:17.256Z,57.50
2022-08-24T03:49:43.777Z,58.13
2022-08-24T03:52:10.072Z,55.03
2022-08-24T03:54:36.458Z,54.65
2022-08-24T03:57:02.783Z,56.60
2022-08-24T03:59:29.311Z,53.78
2022-08-24T04:01:55.909Z,54.17
2022-08-24T04:04:22.390Z,52.45
2022-08-24T04:06:48.906Z,53.40
2022-08-24T04:09:15.228Z,51.17
2022-08-24T04:11:41.755Z,52.08
2022-08-24T04:14:08.470Z,48.83
2022-08-24T04:16:38.609Z,50.20
2022-08-24T04:19:04.970Z,48.95
2022-08-24T04:21:31.255Z,49.60
2022-08-24T04:24:02.013Z,48.15
2022-08-24T04:26:44.110Z,46.83
2022-08-24T04:29:12.216Z,46.85
2022-08-24T04:31:38.562Z,45.63
2022-08-24T04:34:05.071Z,46.40
2022-08-24T04:36:31.356Z,46.30
2022-08-24T04:38:57.870Z,44.75
2022-08-24T04:41:30.912Z,44.03
2022-08-24T04:43:58.156Z,43.33
2022-08-24T04:46:24.458Z,43.65
2022-08-24T04:48:50.788Z,44.00
2022-08-24T04:51:17.259Z,44.42
2022-08-24T04:53:43.550Z,44.00
2022-08-24T04:56:10.071Z,43.67
2022-08-24T04:58:36.472Z,42.90
2022-08-24T05:01:02.936Z,43.17
2022-08-24T05:03:29.483Z,44.45
2022-08-24T05:05:55.808Z,42.33
2022-08-24T05:08:22.148Z,41.45
2022-08-24T05:10:48.622Z,42.45
2022-08-24T05:13:15.327Z,42.00
2022-08-24T05:15:41.673Z,42.35
2022-08-24T05:18:07.994Z,41.13
2022-08-24T05:20:34.395Z,39.42
2022-08-24T05:23:05.268Z,40.00
2022-08-24T05:25:32.022Z,40.42
2022-08-24T05:27:58.351Z,38.90
2022-08-24T05:30:24.639Z,41.33
2022-08-24T05:32:50.988Z,39.95
2022-08-24T05:35:17.349Z,39.13
2022-08-24T05:37:43.593Z,39.30
2022-08-24T05:40:10.077Z,38.17
2022-08-24T05:42:42.848Z,36.85
2022-08-24T05:45:09.281Z,38.50
2022-08-24T05:47:35.709Z,38.38
2022-08-24T05:50:02.115Z,38.60
2022-08-24T05:52:28.430Z,38.20
2022-08-24T05:54:54.754Z,36.53
2022-08-24T05:57:21.057Z,38.72
2022-08-24T05:59:47.485Z,37.75
2022-08-24T06:02:13.916Z,36.88
2022-08-24T06:04:40.747Z,35.45
2022-08-24T06:07:07.167Z,34.55
2022-08-24T06:09:34.333Z,34.67
2022-08-24T06:12:00.784Z,34.17
2022-08-24T06:14:27.320Z,36.70
2022-08-24T06:16:53.789Z,34.03
2022-08-24T06:19:20.488Z,34.30
2022-08-24T06:21:46.814Z,30.85
2022-08-24T06:24:13.272Z,28.20
2022-08-24T06:26:39.605Z,27.98
2022-08-24T06:29:06.017Z,27.50
2022-08-24T06:31:39.392Z,27.60
2022-08-24T06:34:06.497Z,27.25
2022-08-24T06:36:33.360Z,28.30
2022-08-24T06:38:59.638Z,25.88
2022-08-24T06:41:26.051Z,26.95
2022-08-24T06:43:52.379Z,26.67
2022-08-24T06:46:22.167Z,25.75
2022-08-24T06:48:50.913Z,25.92
2022-08-24T06:51:17.237Z,26.00
2022-08-24T06:53:43.549Z,25.85
2022-08-24T06:56:09.977Z,26.45
2022-08-24T06:58:36.730Z,27.17
2022-08-24T07:01:03.080Z,25.08
2022-08-24T07:03:30.961Z,26.10
2022-08-24T07:05:57.287Z,23.27
2022-08-24T07:08:23.692Z,25.83
2022-08-24T07:10:50.120Z,26.15
2022-08-24T07:13:16.434Z,23.70
2022-08-24T07:15:42.897Z,25.17
2022-08-24T07:18:09.534Z,24.20
2022-08-24T07:20:36.741Z,24.98
2022-08-24T07:23:03.186Z,24.25
2022-08-24T07:25:29.948Z,23.95
2022-08-24T07:27:56.770Z,25.65
2022-08-24T07:30:27.279Z,23.38
2022-08-24T07:32:55.322Z,23.83
2022-08-24T07:35:22.835Z,27.40
2022-08-24T07:37:49.233Z,25.27
2022-08-24T07:40:17.361Z,25.13
2022-08-24T07:42:43.678Z,26.90
2022-08-24T07:45:10.026Z,24.75
2022-08-24T07:47:39.696Z,27.98
2022-08-24T07:50:08.392Z,33.38
2022-08-24T07:52:34.729Z,30.98
2022-08-24T07:55:01.230Z,29.77
2022-08-24T07:57:31.273Z,30.98
2022-08-24T07:59:57.598Z,28.27
2022-08-24T08:02:24.001Z,29.25
2022-08-24T08:04:53.518Z,28.95
2022-08-24T08:07:20.005Z,28.90
2022-08-24T08:09:46.469Z,26.58
2022-08-24T08:12:12.909Z,26.65
2022-08-24T08:14:39.300Z,27.23
2022-08-24T08:17:05.664Z,27.38
2022-08-24T08:19:31.971Z,27.23
2022-08-24T08:21:58.586Z,27.23
2022-08-24T08:24:25.058Z,25.85
2022-08-24T08:26:51.417Z,25.90
2022-08-24T08:29:17.673Z,26.33
2022-08-24T08:31:44.222Z,26.10
2022-08-24T08:34:10.566Z,25.52
2022-08-24T08:36:37.065Z,26.02
2022-08-24T08:39:03.385Z,24.95
2022-08-24T08:41:29.636Z,24.67
2022-08-24T08:43:55.973Z,25.13
2022-08-24T08:46:22.434Z,25.17
2022-08-24T08:48:49.279Z,25.42
2022-08-24T08:51:15.677Z,25.05
2022-08-24T08:53:42.334Z,24.77
2022-08-24T08:56:08.676Z,24.27
2022-08-24T08:58:38.074Z,24.70
2022-08-24T09:01:05.534Z,24.90
2022-08-24T09:03:31.953Z,23.85
2022-08-24T09:05:58.541Z,24.48
2022-08-24T09:08:24.956Z,25.23
2022-08-24T09:10:52.102Z,23.73
2022-08-24T09:13:18.417Z,22.27
2022-08-24T09:15:44.749Z,22.55
2022-08-24T09:18:11.251Z,23.38
2022-08-24T09:20:37.704Z,22.50
2022-08-24T09:23:04.074Z,22.95
2022-08-24T09:25:30.354Z,22.30
2022-08-24T09:27:56.626Z,22.75
2022-08-24T09:30:22.993Z,22.40
2022-08-24T09:32:49.454Z,21.75
2022-08-24T09:35:26.370Z,22.02
2022-08-24T09:37:53.626Z,20.92
2022-08-24T09:40:20.028Z,21.55
2022-08-24T09:42:46.698Z,21.55
2022-08-24T09:45:13.180Z,19.85
2022-08-24T09:47:39.544Z,20.33
2022-08-24T09:50:05.812Z,21.58
2022-08-24T09:52:34.002Z,21.80
2022-08-24T09:55:00.547Z,22.10
2022-08-24T09:57:44.170Z,20.77
2022-08-24T10:00:19.398Z,20.55
2022-08-24T10:02:46.133Z,20.33
2022-08-24T10:05:12.642Z,21.08
2022-08-24T10:07:39.049Z,19.13
2022-08-24T10:10:05.531Z,20.38
2022-08-24T10:12:31.801Z,20.88
2022-08-24T10:14:58.190Z,20.48
2022-08-24T10:17:26.097Z,21.50
2022-08-24T10:19:52.477Z,20.52
2022-08-24T10:22:18.866Z,19.92
2022-08-24T10:24:45.245Z,20.23
2022-08-24T10:27:11.537Z,20.10
2022-08-24T10:29:37.823Z,21.35
2022-08-24T10:32:04.295Z,20.05
2022-08-24T10:34:30.740Z,18.70
2022-08-24T10:36:57.077Z,19.17
2022-08-24T10:39:23.488Z,19.85
2022-08-24T10:41:49.947Z,19.50
2022-08-24T10:44:16.376Z,18.85
2022-08-24T10:46:42.865Z,19.30
2022-08-24T10:49:09.140Z,18.63
2022-08-24T10:51:36.206Z,18.85
2022-08-24T10:54:02.620Z,18.40
2022-08-24T10:56:28.967Z,17.38
2022-08-24T10:58:55.327Z,17.98
2022-08-24T11:01:21.834Z,18.13
2022-08-24T11:03:48.165Z,19.10
2022-08-24T11:06:14.565Z,17.98
2022-08-24T11:08:40.934Z,19.60
2022-08-24T11:11:07.297Z,18.48
2022-08-24T11:13:34.440Z,17.52
2022-08-24T11:16:10.702Z,18.30
2022-08-24T11:18:37.061Z,17.15
2022-08-24T11:21:03.579Z,18.10
2022-08-24T11:23:31.809Z,18.13
2022-08-24T11:25:58.661Z,17.80
2022-08-24T11:28:25.202Z,17.75
2022-08-24T11:30:51.905Z,18.70
2022-08-24T11:33:18.226Z,17.48
2022-08-24T11:35:44.650Z,17.55
2022-08-24T11:38:11.044Z,17.52
2022-08-24T11:40:37.601Z,17.60
2022-08-24T11:43:06.142Z,17.27
2022-08-24T11:45:32.595Z,17.27
2022-08-24T11:47:59.150Z,17.17
2022-08-24T11:50:25.466Z,17.25
2022-08-24T11:52:51.760Z,17.85
2022-08-24T11:55:18.086Z,16.90
2022-08-24T11:57:50.598Z,17.02
2022-08-24T12:00:16.974Z,16.63
2022-08-24T12:02:43.406Z,16.13
2022-08-24T12:05:10.702Z,17.25
2022-08-24T12:07:40.628Z,17.20
2022-08-24T12:10:07.124Z,16.23
2022-08-24T12:12:33.772Z,16.58
2022-08-24T12:15:00.798Z,16.10
2022-08-24T12:17:27.136Z,16.15
2022-08-24T12:19:53.513Z,15.80
2022-08-24T12:22:19.852Z,16.65
2022-08-24T12:24:50.867Z,15.05
2022-08-24T12:27:17.155Z,16.20
2022-08-24T12:29:43.633Z,16.27
2022-08-24T12:32:09.997Z,16.88
2022-08-24T12:34:36.532Z,16.33
2022-08-24T12:37:02.890Z,16.58
2022-08-24T12:39:37.200Z,16.95
2022-08-24T12:42:03.603Z,15.45
2022-08-24T12:44:30.921Z,16.00
2022-08-24T12:46:57.496Z,16.92
2022-08-24T12:49:23.915Z,16.67
2022-08-24T12:51:50.258Z,15.93
2022-08-24T12:54:16.528Z,16.50
2022-08-24T12:56:42.816Z,15.40
2022-08-24T12:59:10.597Z,16.40
2022-08-24T13:01:37.051Z,16.35
2022-08-24T13:04:03.436Z,15.48
2022-08-24T13:06:29.788Z,15.75
2022-08-24T13:08:56.254Z,16.50
2022-08-24T13:11:22.540Z,15.90
2022-08-24T13:13:48.905Z,15.18
2022-08-24T13:16:15.217Z,15.98
2022-08-24T13:18:41.534Z,16.27
2022-08-24T13:21:07.830Z,16.25
2022-08-24T13:23:34.183Z,15.43
2022-08-24T13:26:00.558Z,15.60
2022-08-24T13:28:26.824Z,15.10
2022-08-24T13:30:53.236Z,15.45
2022-08-24T13:33:19.622Z,15.07
2022-08-24T13:35:45.921Z,14.85
2022-08-24T13:38:12.317Z,14.30
2022-08-24T13:40:38.852Z,14.30
2022-08-24T13:43:05.265Z,15.35
2022-08-24T13:45:31.624Z,14.82
2022-08-24T13:47:58.069Z,15.27
2022-08-24T13:50:24.482Z,15.10
2022-08-24T13:52:50.998Z,15.00
2022-08-24T13:55:17.363Z,14.98
2022-08-24T13:57:44.010Z,15.32
2022-08-24T14:00:12.780Z,14.48
2022-08-24T14:02:39.616Z,14.70
2022-08-24T14:05:06.212Z,14.35
2022-08-24T14:07:32.578Z,14.35
2022-08-24T14:09:58.915Z,14.20
2022-08-24T14:12:25.210Z,14.73
2022-08-24T14:14:51.525Z,14.30
2022-08-24T14:17:19.865Z,14.07
2022-08-24T14:19:46.639Z,14.68
2022-08-24T14:22:13.788Z,14.07
2022-08-24T14:24:45.329Z,14.00
2022-08-24T14:27:12.364Z,13.82
2022-08-24T14:29:39.050Z,14.52
2022-08-24T14:32:12.685Z,13.63
2022-08-24T14:34:39.191Z,13.98
2022-08-24T14:37:05.666Z,13.85
2022-08-24T14:39:32.033Z,14.32
2022-08-24T14:41:58.379Z,14.48
2022-08-24T14:44:24.809Z,13.95
2022-08-24T14:46:51.553Z,13.85
2022-08-24T14:49:17.925Z,13.80
2022-08-24T14:51:44.270Z,13.45
2022-08-24T14:54:10.602Z,13.30
2022-08-24T14:56:36.907Z,13.95
2022-08-24T14:59:03.402Z,13.70
2022-08-24T15:01:29.966Z,14.35
2022-08-24T15:03:56.554Z,12.48
2022-08-24T15:06:27.318Z,13.85
2022-08-24T15:08:54.402Z,13.75
2022-08-24T15:11:20.888Z,13.07
2022-08-24T15:13:48.117Z,13.38
2022-08-24T15:16:14.511Z,13.90
2022-08-24T15:18:41.072Z,13.25
2022-08-24T15:21:07.547Z,12.55
2022-08-24T15:23:33.869Z,13.15
2022-08-24T15:26:00.288Z,12.73
2022-08-24T15:28:28.984Z,12.77
2022-08-24T15:30:55.429Z,12.85
2022-08-24T15:33:21.822Z,13.75
2022-08-24T15:35:48.270Z,14.18
2022-08-24T15:38:14.584Z,12.93
2022-08-24T15:40:45.258Z,12.95
2022-08-24T15:43:12.607Z,13.80
2022-08-24T15:45:38.871Z,12.60
2022-08-24T15:48:05.493Z,13.57
2022-08-24T15:50:32.053Z,13.13
2022-08-24T15:52:58.467Z,12.85
2022-08-24T15:55:24.781Z,13.00
2022-08-24T15:57:51.133Z,13.55
2022-08-24T16:00:17.786Z,12.93
2022-08-24T16:02:44.279Z,12.43
2022-08-24T16:05:11.028Z,13.05
2022-08-24T16:07:40.836Z,12.35
2022-08-24T16:10:07.249Z,13.02
2022-08-24T16:12:33.797Z,13.27
2022-08-24T16:15:00.136Z,12.77
2022-08-24T16:17:26.784Z,13.35
2022-08-24T16:19:53.636Z,12.73
2022-08-24T16:22:20.044Z,12.07
2022-08-24T16:24:46.846Z,13.55
2022-08-24T16:27:13.192Z,13.38
2022-08-24T16:29:39.546Z,12.77
2022-08-24T16:32:05.965Z,13.30
2022-08-24T16:34:33.367Z,13.15
2022-08-24T16:36:59.721Z,12.68
2022-08-24T16:39:26.021Z,12.00
2022-08-24T16:41:52.354Z,11.90
2022-08-24T16:44:19.084Z,12.73
2022-08-24T16:46:47.201Z,12.80
2022-08-24T16:49:14.665Z,12.57
2022-08-24T16:51:45.395Z,11.60
2022-08-24T16:54:12.036Z,12.43
2022-08-24T16:56:38.372Z,13.07
2022-08-24T16:59:04.857Z,13.00
2022-08-24T17:01:31.235Z,12.20
2022-08-24T17:03:57.708Z,12.15
2022-08-24T17:06:24.138Z,12.60
2022-08-24T17:08:50.574Z,12.23
2022-08-24T17:11:17.018Z,12.30
2022-08-24T17:13:49.868Z,11.18
2022-08-24T17:16:17.044Z,11.90
2022-08-24T17:18:43.658Z,11.70
2022-08-24T17:21:09.982Z,12.50
2022-08-24T17:23:36.413Z,12.38
2022-08-24T17:39:26.135Z,11.90
2022-08-24T17:41:52.762Z,12.27
2022-08-24T17:44:19.134Z,12.15
2022-08-24T17:46:45.811Z,12.40
2022-08-24T17:49:12.149Z,12.25
2022-08-24T17:51:38.449Z,11.93
2022-08-24T17:54:07.652Z,12.73
2022-08-24T17:56:34.434Z,11.40
2022-08-24T17:59:02.161Z,11.82
2022-08-24T18:01:28.690Z,11.90
2022-08-24T18:03:56.370Z,11.27
2022-08-24T18:06:22.742Z,11.45
2022-08-24T18:08:49.105Z,11.25
2022-08-24T18:11:15.429Z,11.82
2022-08-24T18:13:42.000Z,11.52
2022-08-24T18:16:08.464Z,11.15
2022-08-24T18:18:34.818Z,11.98
2022-08-24T18:21:01.331Z,11.85
2022-08-24T18:23:28.172Z,11.35
2022-08-24T18:25:54.995Z,11.77
2022-08-24T18:28:21.298Z,11.70
2022-08-24T18:30:47.838Z,11.88
2022-08-24T18:33:14.147Z,11.55
2022-08-24T18:35:40.442Z,12.10
2022-08-24T18:38:07.043Z,11.20
2022-08-24T18:40:33.780Z,10.63
2022-08-24T18:43:00.575Z,11.88
2022-08-24T18:45:26.954Z,11.30
2022-08-24T18:47:54.823Z,10.70
2022-08-24T18:50:21.144Z,10.93
2022-08-24T18:52:47.593Z,10.80
2022-08-24T18:55:13.980Z,10.38
2022-08-24T18:57:40.285Z,11.38
2022-08-24T19:00:06.731Z,11.50
2022-08-24T19:02:33.355Z,11.63
2022-08-24T19:04:59.858Z,11.07
2022-08-24T19:07:26.164Z,11.43
2022-08-24T19:09:52.602Z,11.10
2022-08-24T19:12:19.101Z,10.75
2022-08-24T19:14:46.618Z,11.27
2022-08-24T19:17:13.057Z,10.82
2022-08-24T19:19:39.586Z,11.00
2022-08-24T19:22:05.968Z,11.02
2022-08-24T19:24:32.439Z,11.13
2022-08-24T19:27:01.735Z,9.95
2022-08-24T19:29:54.082Z,10.00
2022-08-24T19:32:21.650Z,10.50
2022-08-24T19:34:48.381Z,10.80
2022-08-24T19:37:15.118Z,10.27
2022-08-24T19:39:41.942Z,10.02
2022-08-24T19:42:08.664Z,10.30
2022-08-24T19:44:37.277Z,10.95
2022-08-24T19:47:03.807Z,10.77
2022-08-24T19:49:30.551Z,11.18
2022-08-24T19:51:57.004Z,10.65
2022-08-24T19:54:23.473Z,10.88
2022-08-24T19:56:53.489Z,10.73
2022-08-24T19:59:19.902Z,10.60
2022-08-24T20:01:46.263Z,10.95
2022-08-24T20:04:12.550Z,10.15
2022-08-24T20:06:39.619Z,10.52
2022-08-24T20:09:06.035Z,10.45
2022-08-24T20:11:32.336Z,9.85
2022-08-24T20:14:00.312Z,11.00
2022-08-24T20:16:27.035Z,10.15
2022-08-24T20:18:53.400Z,9.85
2022-08-24T20:21:20.203Z,10.05
2022-08-24T20:23:46.792Z,11.05
2022-08-24T20:26:13.091Z,10.02
2022-08-24T20:28:39.518Z,9.38
2022-08-24T20:31:06.113Z,9.75
2022-08-24T20:33:32.598Z,9.52
2022-08-24T20:35:59.730Z,10.80
2022-08-24T20:38:26.122Z,10.75
2022-08-24T20:40:57.946Z,10.10
2022-08-24T20:43:24.290Z,10.27
2022-08-24T20:45:50.623Z,10.15
2022-08-24T20:48:17.385Z,10.00
2022-08-24T20:50:43.752Z,9.82
2022-08-24T20:53:10.146Z,10.23
2022-08-24T20:55:36.825Z,10.32
2022-08-24T20:58:03.476Z,10.07
2022-08-24T21:00:29.907Z,9.63
2022-08-24T21:02:56.288Z,10.40
2022-08-24T21:05:22.754Z,10.02
2022-08-24T21:07:49.155Z,10.07
2022-08-24T21:10:15.626Z,10.18
2022-08-24T21:12:42.080Z,10.70
2022-08-24T21:15:10.488Z,10.18
2022-08-24T21:17:36.809Z,10.10
2022-08-24T21:20:03.157Z,10.43
2022-08-24T21:22:29.594Z,9.23
2022-08-24T21:24:55.942Z,10.68
2022-08-24T21:27:22.461Z,9.63
2022-08-24T21:29:49.077Z,9.55
2022-08-24T21:32:15.465Z,9.68
2022-08-24T21:34:41.961Z,9.65
2022-08-24T21:37:08.254Z,9.75
2022-08-24T21:39:34.585Z,9.30
2022-08-24T21:42:00.955Z,9.82
2022-08-24T21:44:27.519Z,9.88
2022-08-24T21:46:53.929Z,10.65
2022-08-24T21:49:20.413Z,9.63
2022-08-24T21:51:47.044Z,10.10
2022-08-24T21:54:13.401Z,9.65
2022-08-24T21:56:40.046Z,9.77
2022-08-24T21:59:06.696Z,10.15
2022-08-24T22:01:33.265Z,10.10
2022-08-24T22:03:59.709Z,9.35
2022-08-24T22:06:31.091Z,9.55
2022-08-24T22:08:57.720Z,10.23
2022-08-24T22:11:24.014Z,10.25
2022-08-24T22:13:50.381Z,10.02
2022-08-24T22:16:22.450Z,10.02
2022-08-24T22:18:48.874Z,9.00
2022-08-24T22:21:15.306Z,9.18
2022-08-24T22:23:41.578Z,10.23
2022-08-24T22:26:07.882Z,9.85
2022-08-24T22:28:34.225Z,10.15
2022-08-24T22:31:00.631Z,10.35
2022-08-24T22:33:27.042Z,10.98
2022-08-24T22:35:53.321Z,9.50
2022-08-24T22:38:19.601Z,9.55
2022-08-24T22:40:45.881Z,10.10
2022-08-24T22:43:12.484Z,9.98
2022-08-24T22:45:38.868Z,10.55
2022-08-24T22:48:05.181Z,10.05
2022-08-24T22:50:31.453Z,9.95
2022-08-24T22:52:57.895Z,10.00
2022-08-24T22:55:24.382Z,9.93
2022-08-24T22:57:51.050Z,9.88
2022-08-24T23:00:17.935Z,10.10
2022-08-24T23:02:44.305Z,9.35
2022-08-24T23:05:10.637Z,9.77
2022-08-24T23:07:37.081Z,9.73
2022-08-24T23:10:03.526Z,9.77
2022-08-24T23:12:29.789Z,9.05
2022-08-24T23:14:56.112Z,9.65
2022-08-24T23:17:22.414Z,10.02
2022-08-24T23:19:48.781Z,9.27
2022-08-24T23:22:15.496Z,9.85
2022-08-24T23:24:41.766Z,9.63
2022-08-24T23:27:08.743Z,10.02
2022-08-24T23:29:35.074Z,10.40
2022-08-24T23:32:01.917Z,9.32
2022-08-24T23:34:28.370Z,9.93
2022-08-24T23:36:54.697Z,9.43
2022-08-24T23:39:21.425Z,9.80
2022-08-24T23:41:47.750Z,10.30
2022-08-24T23:44:14.046Z,9.82
2022-08-24T23:46:40.446Z,9.98
2022-08-24T23:49:07.014Z,9.75
2022-08-24T23:51:33.392Z,9.52
2022-08-24T23:53:59.714Z,8.82
2022-08-24T23:56:26.011Z,9.43
2022-08-24T23:58:53.054Z,9.18
